createdAt,value
2023-05-24T00:01:07.536Z,9.05
2023-05-24T00:03:39.502Z,11.18
2023-05-24T00:06:08.131Z,9.40
2023-05-24T00:08:36.423Z,10.30
2023-05-24T00:11:04.593Z,9.18
2023-05-24T00:13:34.214Z,8.88
2023-05-24T00:16:02.429Z,9.90
2023-05-24T00:18:31.369Z,10.65
2023-05-24T00:21:00.077Z,10.35
2023-05-24T00:23:28.360Z,8.80
2023-05-24T00:25:56.639Z,11.18
2023-05-24T00:28:24.953Z,8.98
2023-05-24T00:30:54.757Z,9.38
2023-05-24T00:33:23.504Z,12.32
2023-05-24T00:35:56.390Z,10.80
2023-05-24T00:38:25.310Z,9.23
2023-05-24T00:40:53.755Z,8.52
2023-05-24T00:43:21.972Z,10.00
2023-05-24T00:45:52.297Z,9.55
2023-05-24T00:48:23.760Z,9.90
2023-05-24T00:50:52.058Z,9.35
2023-05-24T00:53:20.344Z,10.80
2023-05-24T00:55:48.863Z,9.05
2023-05-24T00:58:17.971Z,9.18
2023-05-24T01:00:49.853Z,9.10
2023-05-24T01:03:19.336Z,9.60
2023-05-24T01:05:48.976Z,9.00
2023-05-24T01:08:30.562Z,9.02
2023-05-24T01:11:07.224Z,9.48
2023-05-24T01:13:46.026Z,9.32
2023-05-24T01:16:18.846Z,9.82
2023-05-24T01:18:51.166Z,8.80
2023-05-24T01:21:38.943Z,9.30
2023-05-24T01:24:19.445Z,9.98
2023-05-24T01:27:09.160Z,8.48
2023-05-24T01:29:38.710Z,9.23
2023-05-24T01:32:08.082Z,9.15
2023-05-24T01:34:36.640Z,9.20
2023-05-24T01:37:04.826Z,8.23
2023-05-24T01:39:33.252Z,11.55
2023-05-24T01:42:09.731Z,8.52
2023-05-24T01:44:41.314Z,9.23
2023-05-24T01:47:25.705Z,10.75
2023-05-24T01:49:58.393Z,8.75
2023-05-24T01:52:32.787Z,11.18
2023-05-24T01:55:02.153Z,9.00
2023-05-24T01:57:34.091Z,10.30
2023-05-24T02:00:03.539Z,8.98
2023-05-24T02:02:32.125Z,8.07
2023-05-24T02:05:00.893Z,9.00
2023-05-24T02:07:29.147Z,9.63
2023-05-24T02:09:57.431Z,8.65
2023-05-24T02:12:25.802Z,8.93
2023-05-24T02:14:57.304Z,8.18
2023-05-24T02:17:26.956Z,8.43
2023-05-24T02:19:55.318Z,7.97
2023-05-24T02:22:23.498Z,8.20
2023-05-24T02:24:51.636Z,7.82
2023-05-24T02:27:19.844Z,8.57
2023-05-24T02:29:48.316Z,8.52
2023-05-24T02:32:17.856Z,7.97
2023-05-24T02:34:46.095Z,8.52
2023-05-24T02:37:14.969Z,8.20
2023-05-24T02:39:43.341Z,8.18
2023-05-24T02:42:11.536Z,8.40
2023-05-24T02:44:39.788Z,8.15
2023-05-24T02:47:08.328Z,8.50
2023-05-24T02:49:37.908Z,8.07
2023-05-24T02:52:06.906Z,8.57
2023-05-24T02:54:35.100Z,8.82
2023-05-24T02:57:03.413Z,8.20
2023-05-24T02:59:32.320Z,7.85
2023-05-24T03:02:00.709Z,7.90
2023-05-24T03:04:29.088Z,8.15
2023-05-24T03:06:58.721Z,8.82
2023-05-24T03:09:27.675Z,9.18
2023-05-24T03:11:55.861Z,7.72
2023-05-24T03:14:25.047Z,7.55
2023-05-24T03:16:53.284Z,7.32
2023-05-24T03:19:21.515Z,9.00
2023-05-24T03:21:49.740Z,7.47
2023-05-24T03:24:19.390Z,8.60
2023-05-24T03:26:47.646Z,8.25
2023-05-24T03:29:16.031Z,8.07
2023-05-24T03:31:44.322Z,8.13
2023-05-24T03:34:12.632Z,7.90
2023-05-24T03:36:40.894Z,7.38
2023-05-24T03:39:09.460Z,7.20
2023-05-24T03:41:39.047Z,7.28
2023-05-24T03:44:07.330Z,8.27
2023-05-24T03:46:35.553Z,7.78
2023-05-24T03:49:03.787Z,7.95
2023-05-24T03:51:32.064Z,8.18
2023-05-24T03:54:00.499Z,8.52
2023-05-24T03:56:28.712Z,7.90
2023-05-24T03:59:00.885Z,8.02
2023-05-24T04:01:34.279Z,7.72
2023-05-24T04:04:03.309Z,9.02
2023-05-24T04:06:32.068Z,8.25
2023-05-24T04:09:01.255Z,8.02
2023-05-24T04:11:29.453Z,8.40
2023-05-24T04:14:00.636Z,7.13
2023-05-24T04:16:29.592Z,8.55
2023-05-24T04:18:58.388Z,8.07
2023-05-24T04:21:26.893Z,8.00
2023-05-24T04:23:55.977Z,6.85
2023-05-24T04:26:24.257Z,8.15
2023-05-24T04:28:52.542Z,7.63
2023-05-24T04:31:22.595Z,7.38
2023-05-24T04:33:51.242Z,7.77
2023-05-24T04:36:19.479Z,8.55
2023-05-24T04:38:47.688Z,8.48
2023-05-24T04:41:16.143Z,7.65
2023-05-24T04:43:44.290Z,8.65
2023-05-24T04:46:12.822Z,7.50
2023-05-24T04:48:42.427Z,6.85
2023-05-24T04:51:10.687Z,9.68
2023-05-24T04:53:38.894Z,8.10
2023-05-24T04:56:07.366Z,6.95
2023-05-24T04:58:37.032Z,9.90
2023-05-24T05:01:06.452Z,8.02
2023-05-24T05:03:34.972Z,7.82
2023-05-24T05:06:05.010Z,6.80
2023-05-24T05:08:33.522Z,7.57
2023-05-24T05:11:02.855Z,7.53
2023-05-24T05:13:31.066Z,7.35
2023-05-24T05:15:59.359Z,7.80
2023-05-24T05:18:27.613Z,7.90
2023-05-24T05:20:55.812Z,8.20
2023-05-24T05:23:25.433Z,7.80
2023-05-24T05:25:53.860Z,6.93
2023-05-24T05:28:22.133Z,6.72
2023-05-24T05:30:50.419Z,7.82
2023-05-24T05:33:18.822Z,6.60
2023-05-24T05:35:47.016Z,7.32
2023-05-24T05:38:15.201Z,7.35
2023-05-24T05:40:44.916Z,7.45
2023-05-24T05:43:13.151Z,7.88
2023-05-24T05:45:41.560Z,6.63
2023-05-24T05:48:09.936Z,6.63
2023-05-24T05:50:38.145Z,7.43
2023-05-24T05:53:06.313Z,7.43
2023-05-24T05:55:34.539Z,7.53
2023-05-24T05:58:04.308Z,8.85
2023-05-24T06:00:32.542Z,8.43
2023-05-24T06:03:00.774Z,8.43
2023-05-24T06:05:29.018Z,8.32
2023-05-24T06:07:57.255Z,7.57
2023-05-24T06:10:25.524Z,7.05
2023-05-24T06:12:53.774Z,8.18
2023-05-24T06:15:23.590Z,11.88
2023-05-24T06:17:52.841Z,8.27
2023-05-24T06:20:21.070Z,7.40
2023-05-24T06:22:50.776Z,7.28
2023-05-24T06:25:21.072Z,7.55
2023-05-24T06:27:49.397Z,7.13
2023-05-24T06:30:17.667Z,6.93
2023-05-24T06:32:47.353Z,6.80
2023-05-24T06:35:15.542Z,7.45
2023-05-24T06:37:43.796Z,8.15
2023-05-24T06:40:13.100Z,7.38
2023-05-24T06:42:41.413Z,8.15
2023-05-24T06:45:10.627Z,9.68
2023-05-24T06:47:38.985Z,8.43
2023-05-24T06:50:10.394Z,6.35
2023-05-24T06:52:38.644Z,9.07
2023-05-24T06:55:07.351Z,7.30
2023-05-24T06:57:35.524Z,8.32
2023-05-24T07:00:06.894Z,7.97
2023-05-24T07:02:35.102Z,7.70
2023-05-24T07:05:03.514Z,8.90
2023-05-24T07:07:33.766Z,7.28
2023-05-24T07:10:02.016Z,8.53
2023-05-24T07:12:30.146Z,8.02
2023-05-24T07:14:58.387Z,7.53
2023-05-24T07:17:26.590Z,7.22
2023-05-24T07:19:54.763Z,8.23
2023-05-24T07:22:24.457Z,7.90
2023-05-24T07:24:53.996Z,8.23
2023-05-24T07:27:22.752Z,8.15
2023-05-24T07:29:51.345Z,7.50
2023-05-24T07:32:19.522Z,9.23
2023-05-24T07:34:47.703Z,6.90
2023-05-24T07:37:16.755Z,9.52
2023-05-24T07:39:44.947Z,7.97
2023-05-24T07:42:14.472Z,7.05
2023-05-24T07:44:42.646Z,7.43
2023-05-24T07:47:10.968Z,7.22
2023-05-24T07:49:39.064Z,8.10
2023-05-24T07:52:07.306Z,6.78
2023-05-24T07:54:35.549Z,8.85
2023-05-24T07:57:06.588Z,6.70
2023-05-24T07:59:37.491Z,9.70
2023-05-24T08:02:06.550Z,6.90
2023-05-24T08:04:35.468Z,11.95
2023-05-24T08:07:05.204Z,8.45
2023-05-24T08:09:35.831Z,8.35
2023-05-24T08:12:04.817Z,8.07
2023-05-24T08:14:33.107Z,7.63
2023-05-24T08:17:02.888Z,7.10
2023-05-24T08:19:35.795Z,9.02
2023-05-24T08:22:05.786Z,9.68
2023-05-24T08:24:34.156Z,8.57
2023-05-24T08:27:04.307Z,6.75
2023-05-24T08:29:32.523Z,6.80
2023-05-24T08:32:03.192Z,7.32
2023-05-24T08:34:31.830Z,8.50
2023-05-24T08:36:59.906Z,9.02
2023-05-24T08:39:28.156Z,7.28
2023-05-24T08:42:08.758Z,11.68
2023-05-24T08:44:43.031Z,9.15
2023-05-24T08:47:14.101Z,9.27
2023-05-24T08:49:42.734Z,8.43
2023-05-24T08:52:12.825Z,8.70
2023-05-24T08:54:42.821Z,8.73
2023-05-24T08:57:12.358Z,9.30
2023-05-24T08:59:42.835Z,9.35
2023-05-24T09:02:15.487Z,8.23
2023-05-24T09:04:44.817Z,9.68
2023-05-24T09:07:14.984Z,8.00
2023-05-24T09:09:48.245Z,11.57
2023-05-24T09:12:35.629Z,7.95
2023-05-24T09:15:06.849Z,10.15
2023-05-24T09:17:38.259Z,10.23
2023-05-24T09:20:10.307Z,9.27
2023-05-24T09:22:42.501Z,8.20
2023-05-24T09:25:15.356Z,10.45
2023-05-24T09:27:50.423Z,10.32
2023-05-24T09:30:18.638Z,10.57
2023-05-24T09:32:58.844Z,11.60
2023-05-24T09:35:28.371Z,11.10
2023-05-24T09:37:59.739Z,10.07
2023-05-24T09:40:28.836Z,10.60
2023-05-24T09:43:09.225Z,13.20
2023-05-24T09:45:42.993Z,8.77
2023-05-24T09:48:15.418Z,8.98
2023-05-24T09:50:45.934Z,11.63
2023-05-24T09:53:14.247Z,9.98
2023-05-24T09:55:42.551Z,10.05
2023-05-24T09:58:12.883Z,10.40
2023-05-24T10:00:42.704Z,10.60
2023-05-24T10:03:15.400Z,9.27
2023-05-24T10:05:45.792Z,12.02
2023-05-24T10:08:14.883Z,9.35
2023-05-24T10:10:44.086Z,10.32
2023-05-24T10:13:15.878Z,9.25
2023-05-24T10:15:45.430Z,11.40
2023-05-24T10:18:15.252Z,10.43
2023-05-24T10:20:44.491Z,10.20
2023-05-24T10:23:17.613Z,9.65
2023-05-24T10:25:51.186Z,13.98
2023-05-24T10:28:21.510Z,10.93
2023-05-24T10:31:00.689Z,12.27
2023-05-24T10:33:32.154Z,13.98
2023-05-24T10:36:00.823Z,14.30
2023-05-24T10:38:30.948Z,10.52
2023-05-24T10:40:59.525Z,13.07
2023-05-24T10:43:27.880Z,9.65
2023-05-24T10:45:56.648Z,11.48
2023-05-24T10:48:42.109Z,11.32
2023-05-24T10:51:36.865Z,10.43
2023-05-24T10:54:18.832Z,11.57
2023-05-24T10:56:49.673Z,12.02
2023-05-24T10:59:39.624Z,12.55
2023-05-24T11:02:13.916Z,13.07
2023-05-24T11:04:47.028Z,11.88
2023-05-24T11:07:17.244Z,14.80
2023-05-24T11:09:52.722Z,11.93
2023-05-24T11:12:21.778Z,11.70
2023-05-24T11:14:52.338Z,12.02
2023-05-24T11:19:53.230Z,14.05
2023-05-24T11:22:22.785Z,16.23
2023-05-24T11:24:51.754Z,11.70
2023-05-24T11:27:20.072Z,11.10
2023-05-24T11:29:49.346Z,12.50
2023-05-24T11:32:18.912Z,10.43
2023-05-24T11:34:48.213Z,11.38
2023-05-24T11:37:18.958Z,10.73
2023-05-24T11:42:19.648Z,13.25
2023-05-24T11:44:50.960Z,12.57
2023-05-24T11:47:22.834Z,9.82
2023-05-24T11:49:52.680Z,12.82
2023-05-24T11:52:23.019Z,12.27
2023-05-24T11:54:51.882Z,8.60
2023-05-24T11:57:23.971Z,10.70
2023-05-24T11:59:52.167Z,13.77
2023-05-24T12:02:21.084Z,12.38
2023-05-24T12:04:49.443Z,15.23
2023-05-24T12:07:17.893Z,10.77
2023-05-24T12:09:47.608Z,12.98
2023-05-24T12:12:15.976Z,16.17
2023-05-24T12:14:44.424Z,12.60
2023-05-24T12:17:17.531Z,13.55
2023-05-24T12:19:45.756Z,11.70
2023-05-24T12:22:13.958Z,12.70
2023-05-24T12:24:42.403Z,15.38
2023-05-24T12:27:13.377Z,10.82
2023-05-24T12:32:14.225Z,14.68
2023-05-24T12:34:44.688Z,13.30
2023-05-24T12:37:14.313Z,12.65
2023-05-24T12:39:43.914Z,13.20
2023-05-24T12:42:14.461Z,16.93
2023-05-24T12:44:45.068Z,11.75
2023-05-24T12:47:13.534Z,12.57
2023-05-24T12:49:41.932Z,10.65
2023-05-24T12:52:10.214Z,10.23
2023-05-24T12:54:38.537Z,10.48
2023-05-24T12:57:07.187Z,11.35
2023-05-24T12:59:37.358Z,10.90
2023-05-24T13:02:05.851Z,13.10
2023-05-24T13:04:36.048Z,10.80
2023-05-24T13:07:04.392Z,14.57
2023-05-24T13:09:34.291Z,9.32
2023-05-24T13:12:03.065Z,13.05
2023-05-24T13:14:31.351Z,13.43
2023-05-24T13:17:00.994Z,16.88
2023-05-24T13:19:29.655Z,12.68
2023-05-24T13:21:57.819Z,12.77
2023-05-24T13:24:26.042Z,16.20
2023-05-24T13:26:55.053Z,13.70
2023-05-24T13:31:55.239Z,11.82
2023-05-24T13:34:25.891Z,11.05
2023-05-24T13:36:55.112Z,11.60
2023-05-24T13:39:23.968Z,11.65
2023-05-24T13:41:52.244Z,13.52
2023-05-24T13:44:20.539Z,14.85
2023-05-24T13:46:48.975Z,18.52
2023-05-24T13:49:17.308Z,12.02
2023-05-24T13:51:47.150Z,15.50
2023-05-24T13:54:15.435Z,11.40
2023-05-24T13:56:44.955Z,14.63
2023-05-24T13:59:13.311Z,13.60
2023-05-24T14:01:41.523Z,11.93
2023-05-24T14:04:10.010Z,11.27
2023-05-24T14:06:38.400Z,15.85
2023-05-24T14:09:08.601Z,17.80
2023-05-24T14:11:37.262Z,14.83
2023-05-24T14:16:36.780Z,16.10
2023-05-24T14:19:05.749Z,12.70
2023-05-24T14:21:33.970Z,13.80
2023-05-24T14:24:02.180Z,13.10
2023-05-24T14:26:32.370Z,12.20
2023-05-24T14:29:00.545Z,10.00
2023-05-24T14:31:29.015Z,12.52
2023-05-24T14:33:57.319Z,13.52
2023-05-24T14:36:25.772Z,16.42
2023-05-24T14:38:54.080Z,13.20
2023-05-24T14:41:22.623Z,14.18
2023-05-24T14:43:52.307Z,15.30
2023-05-24T14:46:20.603Z,13.10
2023-05-24T14:48:48.754Z,17.63
2023-05-24T14:51:17.182Z,11.95
2023-05-24T14:53:45.486Z,16.25
2023-05-24T14:56:14.451Z,16.00
2023-05-24T14:58:43.073Z,11.38
2023-05-24T15:01:12.653Z,14.00
2023-05-24T15:03:40.987Z,13.07
2023-05-24T15:06:09.561Z,14.07
2023-05-24T15:08:37.978Z,14.13
2023-05-24T15:11:06.651Z,10.07
2023-05-24T15:13:35.084Z,11.00
2023-05-24T15:16:03.248Z,14.73
2023-05-24T15:18:33.110Z,13.27
2023-05-24T15:21:01.453Z,12.45
2023-05-24T15:23:29.694Z,12.65
2023-05-24T15:25:57.806Z,10.40
2023-05-24T15:28:26.748Z,12.65
2023-05-24T15:30:55.995Z,11.50
2023-05-24T15:33:24.381Z,9.65
2023-05-24T15:35:54.946Z,11.48
2023-05-24T15:38:23.385Z,11.55
2023-05-24T15:40:52.429Z,12.13
2023-05-24T15:43:20.782Z,11.07
2023-05-24T15:45:49.304Z,11.43
2023-05-24T15:48:17.589Z,9.93
2023-05-24T15:51:03.786Z,10.68
2023-05-24T15:53:35.346Z,10.38
2023-05-24T15:56:03.509Z,10.90
2023-05-24T15:58:31.635Z,11.68
2023-05-24T16:00:59.837Z,11.05
2023-05-24T16:03:28.222Z,10.88
2023-05-24T16:05:56.509Z,11.48
2023-05-24T16:08:28.100Z,10.48
2023-05-24T16:10:58.140Z,9.82
2023-05-24T16:13:26.448Z,11.43
2023-05-24T16:15:54.609Z,10.00
2023-05-24T16:18:23.692Z,10.38
2023-05-24T16:20:52.597Z,10.45
2023-05-24T16:23:23.067Z,10.55
2023-05-24T16:25:51.638Z,10.80
2023-05-24T16:28:24.205Z,12.65
2023-05-24T16:30:55.799Z,12.32
2023-05-24T16:33:24.469Z,9.52
2023-05-24T16:35:56.171Z,12.82
2023-05-24T16:38:25.477Z,9.93
2023-05-24T16:40:53.967Z,9.73
2023-05-24T16:43:23.714Z,10.18
2023-05-24T16:45:52.461Z,10.63
2023-05-24T16:48:23.247Z,10.10
2023-05-24T16:53:23.163Z,10.77
2023-05-24T16:55:53.897Z,10.32
2023-05-24T16:58:24.488Z,13.60
2023-05-24T17:00:54.333Z,11.18
2023-05-24T17:03:28.095Z,9.60
2023-05-24T17:06:02.041Z,13.60
2023-05-24T17:08:32.630Z,11.57
2023-05-24T17:11:00.858Z,12.25
2023-05-24T17:13:30.450Z,13.45
2023-05-24T17:16:00.316Z,12.07
2023-05-24T17:18:29.294Z,11.33
2023-05-24T17:20:58.081Z,10.13
2023-05-24T17:23:26.626Z,10.90
2023-05-24T17:25:55.683Z,11.18
2023-05-24T17:28:27.370Z,10.27
2023-05-24T17:30:57.642Z,11.88
2023-05-24T17:33:27.294Z,10.27
2023-05-24T17:35:56.961Z,8.07
2023-05-24T17:38:25.945Z,9.75
2023-05-24T17:40:57.038Z,12.77
2023-05-24T17:43:28.934Z,11.27
2023-05-24T17:46:03.689Z,12.07
2023-05-24T17:48:32.734Z,9.55
2023-05-24T17:51:02.004Z,9.30
2023-05-24T17:53:32.314Z,11.52
2023-05-24T17:56:01.185Z,11.00
2023-05-24T17:58:30.825Z,10.23
2023-05-24T18:01:00.608Z,9.90
2023-05-24T18:03:29.046Z,11.98
2023-05-24T18:05:57.787Z,11.70
2023-05-24T18:08:26.460Z,9.85
2023-05-24T18:10:54.748Z,12.85
2023-05-24T18:13:23.059Z,10.68
2023-05-24T18:15:51.450Z,9.63
2023-05-24T18:18:21.091Z,9.70
2023-05-24T18:20:49.398Z,8.80
2023-05-24T18:23:17.966Z,7.72
2023-05-24T18:25:46.399Z,10.02
2023-05-24T18:28:14.832Z,10.50
2023-05-24T18:30:43.875Z,9.65
2023-05-24T18:33:12.206Z,9.02
2023-05-24T18:35:41.869Z,8.50
2023-05-24T18:38:10.251Z,8.93
2023-05-24T18:40:38.467Z,7.95
2023-05-24T18:43:06.794Z,9.52
2023-05-24T18:45:34.999Z,8.68
2023-05-24T18:48:03.362Z,8.68
2023-05-24T18:50:31.678Z,7.63
2023-05-24T18:53:01.432Z,12.82
2023-05-24T18:55:29.734Z,11.45
2023-05-24T18:57:58.034Z,9.75
2023-05-24T19:00:26.293Z,9.35
2023-05-24T19:02:56.140Z,8.60
2023-05-24T19:05:24.444Z,8.57
2023-05-24T19:07:52.685Z,9.32
2023-05-24T19:10:22.380Z,8.52
2023-05-24T19:12:50.555Z,9.38
2023-05-24T19:15:18.758Z,9.77
2023-05-24T19:17:47.006Z,8.77
2023-05-24T19:20:15.201Z,8.77
2023-05-24T19:22:43.439Z,8.50
2023-05-24T19:25:11.757Z,10.10
2023-05-24T19:27:51.218Z,8.45
2023-05-24T19:30:26.684Z,9.02
2023-05-24T19:32:54.981Z,8.65
2023-05-24T19:35:23.315Z,9.75
2023-05-24T19:37:52.506Z,8.82
2023-05-24T19:40:20.864Z,8.38
2023-05-24T19:42:50.500Z,9.02
2023-05-24T19:45:18.791Z,9.25
2023-05-24T19:47:47.108Z,9.68
2023-05-24T19:50:15.360Z,7.65
2023-05-24T19:52:43.463Z,7.82
2023-05-24T19:55:11.707Z,8.30
2023-05-24T19:57:39.908Z,8.88
2023-05-24T20:00:12.371Z,10.35
2023-05-24T20:02:40.719Z,8.40
2023-05-24T20:05:10.024Z,9.98
2023-05-24T20:07:38.416Z,8.60
2023-05-24T20:10:08.137Z,9.55
2023-05-24T20:12:36.375Z,10.55
2023-05-24T20:15:04.949Z,8.98
2023-05-24T20:17:34.749Z,9.02
2023-05-24T20:20:03.037Z,9.35
2023-05-24T20:22:31.202Z,8.15
2023-05-24T20:24:59.355Z,10.57
2023-05-24T20:27:27.698Z,8.00
2023-05-24T20:29:55.925Z,8.55
2023-05-24T20:32:24.188Z,7.85
2023-05-24T20:34:53.736Z,7.95
2023-05-24T20:37:21.929Z,7.57
2023-05-24T20:39:50.196Z,9.15
2023-05-24T20:42:18.476Z,8.40
2023-05-24T20:44:46.614Z,8.88
2023-05-24T20:47:16.693Z,9.18
2023-05-24T20:49:44.904Z,10.23
2023-05-24T20:52:16.222Z,8.48
2023-05-24T20:54:46.277Z,7.75
2023-05-24T20:57:17.347Z,9.43
2023-05-24T20:59:47.906Z,8.70
2023-05-24T21:02:16.082Z,9.60
2023-05-24T21:04:44.257Z,9.23
2023-05-24T21:07:12.442Z,9.75
2023-05-24T21:09:42.019Z,6.78
2023-05-24T21:12:10.563Z,8.98
2023-05-24T21:14:38.629Z,7.05
2023-05-24T21:17:07.549Z,7.07
2023-05-24T21:19:35.807Z,7.15
2023-05-24T21:22:04.022Z,7.65
2023-05-24T21:24:32.127Z,7.93
2023-05-24T21:27:01.904Z,7.25
2023-05-24T21:29:30.167Z,8.80
2023-05-24T21:31:58.299Z,10.70
2023-05-24T21:34:27.392Z,7.57
2023-05-24T21:36:55.580Z,7.47
2023-05-24T21:39:23.803Z,7.13
2023-05-24T21:41:51.988Z,6.82
2023-05-24T21:44:21.554Z,8.90
2023-05-24T21:46:49.733Z,7.03
2023-05-24T21:49:19.041Z,7.18
2023-05-24T21:51:47.197Z,7.47
2023-05-24T21:54:15.326Z,9.07
2023-05-24T21:56:43.500Z,8.10
2023-05-24T21:59:11.681Z,8.23
2023-05-24T22:01:41.860Z,7.90
2023-05-24T22:04:10.991Z,7.20
2023-05-24T22:06:41.454Z,8.02
2023-05-24T22:09:10.665Z,7.55
2023-05-24T22:11:40.885Z,9.60
2023-05-24T22:14:10.445Z,7.13
2023-05-24T22:16:40.121Z,8.70
2023-05-24T22:19:14.967Z,7.68
2023-05-24T22:21:45.930Z,7.68
2023-05-24T22:24:14.102Z,7.88
2023-05-24T22:26:47.160Z,6.93
2023-05-24T22:29:15.959Z,8.90
2023-05-24T22:31:45.643Z,8.40
2023-05-24T22:34:13.952Z,8.60
2023-05-24T22:36:42.059Z,6.88
2023-05-24T22:39:10.178Z,6.18
2023-05-24T22:41:38.367Z,6.88
2023-05-24T22:44:06.541Z,7.28
2023-05-24T22:46:34.955Z,7.57
2023-05-24T22:49:05.922Z,7.68
2023-05-24T22:54:02.307Z,7.82
2023-05-24T22:56:32.261Z,6.57
2023-05-24T22:59:00.397Z,8.80
2023-05-24T23:01:28.576Z,9.77
2023-05-24T23:04:07.754Z,6.63
2023-05-24T23:06:46.674Z,7.63
2023-05-24T23:09:14.879Z,6.75
2023-05-24T23:11:43.169Z,7.25
2023-05-24T23:14:11.803Z,8.90
2023-05-24T23:16:45.701Z,8.73
2023-05-24T23:19:18.905Z,7.57
2023-05-24T23:21:48.920Z,6.72
2023-05-24T23:24:17.225Z,7.05
2023-05-24T23:26:45.502Z,6.53
2023-05-24T23:29:13.722Z,6.97
2023-05-24T23:31:42.097Z,6.95
2023-05-24T23:34:10.398Z,7.90
2023-05-24T23:36:38.609Z,8.25
2023-05-24T23:39:10.976Z,7.22
2023-05-24T23:41:39.116Z,6.60
2023-05-24T23:44:07.302Z,6.00
2023-05-24T23:46:36.088Z,7.63
2023-05-24T23:49:04.376Z,6.28
2023-05-24T23:51:35.002Z,6.22
2023-05-24T23:54:03.155Z,5.90
2023-05-24T23:56:32.734Z,6.50
2023-05-24T23:59:01.456Z,7.38
